Seaview, Virginia
Current Conditions -  °F | °C
As of 10:58 PM on Sunday 25 Jan 2015 (Local Time) from KLFI Reporting Station
Clear Clear  
Wind Chill: 41°   Ceiling: Unl
Heat Index: 41°   Visibility: 10mi
Dew Point: 33°   Wind: 2mph
Humidity: 74%   Direction: 180°S
Pressure: 29.89"   Gusts: NA
Location:  37.26°N, 75.95°W
Report Text: KLFI 260358Z AUTO 18002KT 10SM CLR 05/01 A2989 RMK AO2 SLP129 T00500008 $
Loading
Personal Weather Stations






























Interactive Weather Map New forecast layout! Learn more

10-Day Weather Forecast

Advertisements
Track Severe Weather on mobile